Frederikshavn, Denmark
Current Conditions -  °F | °C
As of 5:20 PM on Monday 26 Jan 2015 (Local Time) from EKYT Reporting Station
Broken Clouds Broken Clouds  
Wind Chill: 36°   Ceiling: 8200
Heat Index: 41°   Visibility: 6mi
Dew Point: 39°   Wind: 8mph
Humidity: 93%   Direction: 280°W
Pressure: 29.71"   Gusts: NA
Location:  57.44°N, 10.54°E
Report Text: EKYT 261620Z 28007KT 9999 FEW028 BKN082 05/04 Q1006 R26/CLRD//
Loading
Personal Weather Stations






























Interactive Weather Map New forecast layout! Learn more

10-Day Weather Forecast

Advertisements
Track Severe Weather on mobile